Terminal Aerodrome Forecast
Issued by NWS Charleston, WV

Home | Current Version | Previous Version | Text Only | Print | Product List | Glossary On
Versions: 1 2 3 4 5 6 7 8 9 10 11 12 13 14 15 16 17 18 19 20 21 22 23 24
000
FTUS41 KRLX 010900 AAB
TAFPKB
TAF AMD
KPKB 010901Z 0109/0206 00000KT 1/4SM FG VV001
     FM011200 00000KT 3SM BR BKN001
     FM011230 00000KT P6SM BKN250
     FM011800 14004KT P6SM VCTS BKN060CB
     FM012100 12004KT P6SM BKN090=

USA.gov is the U.S. government's official web portal to all federal, state and local government web resources and services.